Startpagina
METAR-TAF:

METAR-TAF

Vliegvelden :

Coolangatta, Australië

breedte: 28-10S, lengte: 153-30E, hoogte: 6 m

Actueel weer

Dit bericht is 24 minuten geleden gemaakt, om 08:30 UTC
Wind 14 kt uit het noorden
Temperatuur 25°C
Vochtigheid 79%
Druk 1013 hPa
Zicht 10 km of meer

METAR: YBCG 100830Z AUTO 36014KT 9999 // NCD 25/21 Q1013 RF00.0/000.0

Tijdstip: 18:54 (08:54 UTC)

Verwachting

Dit bericht is 3 uur en het 32 minuten geleden gemaakt, om 05:22 UTC
Verwachting geldig van 10 om 06 UTC tot 11 om 06 UTC
Wind 16 kt uit het noorden
Zicht 10 km of meer
geen wolken onder 1500 m en geen cumulonimbus
Van 10 om 0900 UTC
Wind 12 kt uit het noorden
Zicht 10 km of meer
Verspreide wolken op 1800 ft
rook
Van 10 om 2300 UTC
Wind 16 kt uit het noordnoordoosten
Zicht 10 km of meer
geen wolken onder 1500 m en geen cumulonimbus

TAF: YBCG 100522Z 1006/1106 01016KT CAVOK FM100900 35012KT 9999 FU SCT018 FM102300 02016KT CAVOK

Waarnemingen en weersverwachtingen van meer dan 4000 vliegvelden (METAR en TAF).

De beschikbare stations zijn de gele en rode punten op de kaart.

Ga met uw muis naar het station om de naam te zien.

Klik dan om waarnemingen en weersverwachtingen te zien.

kaart wijzigen: klik op de groene knoppen met een zwart kruis om in te zoomen, op de groene knop met een streepje om uit te zoomen of op de groene pijlen voor aangrenzende kaarten.


METAR-TAF: